Time;durP1;ratioP1;P1;durP2;ratioP2;P2;SDS_P1;SDS_P2;PMS_P1;PMS_P2;Temp;Humidity;BMP_temperature;BMP_pressure;BME280_temperature;BME280_humidity;BME280_pressure;Samples;Min_cycle;Max_cycle;Signal;HPM_P1;HPM_P2
2022/03/19 00:02:00;;;;;;;14.98;2.45;;;;;;;;;;4977902;28;20141;-91
2022/03/19 00:04:26;;;;;;;19.90;3.42;;;;;;;;;;4978167;28;20078;-90
2022/03/19 00:06:52;;;;;;;13.52;2.53;;;;;;;;;;4977955;28;20038;-89
2022/03/19 00:09:18;;;;;;;11.15;2.40;;;;;;;;;;4993957;28;20096;-91
2022/03/19 00:11:44;;;;;;;12.40;2.83;;;;;;;;;;4993883;28;20232;-91
2022/03/19 00:14:11;;;;;;;14.50;3.20;;;;;;;;;;4977538;28;20034;-90
2022/03/19 00:16:38;;;;;;;11.98;2.83;;;;;;;;;;4993461;28;20366;-91
2022/03/19 00:19:04;;;;;;;9.80;2.88;;;;;;;;;;4977782;28;20049;-91
2022/03/19 00:21:30;;;;;;;11.20;2.80;;;;;;;;;;4993536;28;20088;-90
2022/03/19 00:23:56;;;;;;;14.18;3.33;;;;;;;;;;4993677;28;20046;-91
2022/03/19 00:26:22;;;;;;;15.88;2.40;;;;;;;;;;4977195;28;20038;-90
2022/03/19 00:28:48;;;;;;;16.27;2.92;;;;;;;;;;4993403;28;20046;-91
2022/03/19 00:31:14;;;;;;;13.30;3.17;;;;;;;;;;4977758;28;20133;-90
2022/03/19 00:33:40;;;;;;;14.35;2.95;;;;;;;;;;4977376;28;20568;-90
2022/03/19 00:36:06;;;;;;;10.23;2.45;;;;;;;;;;4993416;28;20168;-91
2022/03/19 00:38:32;;;;;;;13.98;2.47;;;;;;;;;;4993393;28;20105;-91
2022/03/19 00:40:58;;;;;;;17.77;2.38;;;;;;;;;;4993722;28;20121;-90
2022/03/19 00:43:24;;;;;;;14.02;3.15;;;;;;;;;;4976927;28;20533;-91
2022/03/19 00:45:50;;;;;;;11.82;2.28;;;;;;;;;;4993910;28;20054;-91
2022/03/19 00:48:17;;;;;;;12.73;2.47;;;;;;;;;;4993897;28;20046;-91
2022/03/19 00:50:44;;;;;;;8.88;2.28;;;;;;;;;;4993820;28;20049;-91
2022/03/19 00:53:10;;;;;;;10.75;2.50;;;;;;;;;;4993706;28;20480;-91
2022/03/19 00:55:38;;;;;;;13.15;2.88;;;;;;;;;;4976895;28;20041;-90
2022/03/19 00:58:04;;;;;;;14.88;2.17;;;;;;;;;;4993029;28;20520;-90
2022/03/19 01:00:30;;;;;;;14.55;2.80;;;;;;;;;;4993800;28;20050;-90
2022/03/19 01:02:56;;;;;;;12.35;2.70;;;;;;;;;;4993340;28;20042;-90
2022/03/19 01:05:23;;;;;;;15.85;2.85;;;;;;;;;;4976606;28;20042;-91
2022/03/19 01:07:53;;;;;;;10.00;2.42;;;;;;;;;;4977169;28;20092;-91
2022/03/19 01:10:23;;;;;;;13.93;2.55;;;;;;;;;;4977160;28;20078;-90
2022/03/19 01:12:50;;;;;;;11.18;2.78;;;;;;;;;;4993393;28;20038;-90
2022/03/19 01:15:16;;;;;;;9.88;2.20;;;;;;;;;;4977631;28;20088;-90
2022/03/19 01:17:43;;;;;;;14.57;3.05;;;;;;;;;;4994222;28;20393;-91
2022/03/19 01:20:10;;;;;;;13.85;2.20;;;;;;;;;;4977563;28;20034;-90
2022/03/19 01:22:37;;;;;;;11.65;2.90;;;;;;;;;;4977345;28;20049;-91
2022/03/19 01:25:05;;;;;;;10.90;2.20;;;;;;;;;;4997315;28;20122;-90
2022/03/19 01:27:32;;;;;;;13.02;2.78;;;;;;;;;;4980747;28;20076;-90
2022/03/19 01:29:58;;;;;;;12.60;2.53;;;;;;;;;;4997214;28;20113;-90
2022/03/19 01:32:24;;;;;;;15.40;2.90;;;;;;;;;;4996959;28;20572;-91
2022/03/19 01:34:50;;;;;;;11.80;2.53;;;;;;;;;;4980313;28;20046;-91
2022/03/19 01:37:16;;;;;;;13.13;3.33;;;;;;;;;;4996753;28;20104;-90
2022/03/19 01:39:42;;;;;;;10.27;2.65;;;;;;;;;;4996943;28;20445;-90
2022/03/19 01:42:08;;;;;;;13.73;3.13;;;;;;;;;;4996515;28;20057;-90
2022/03/19 01:44:34;;;;;;;13.07;3.40;;;;;;;;;;4996826;28;20104;-90
2022/03/19 01:47:10;;;;;;;15.95;2.90;;;;;;;;;;4996846;28;20042;-90
2022/03/19 01:49:36;;;;;;;;;;;;;;;;;;4980777;28;20050;-92
2022/03/19 01:52:02;;;;;;;10.50;2.50;;;;;;;;;;4996363;28;19980;-92
2022/03/19 01:54:38;;;;;;;13.32;2.50;;;;;;;;;;4980005;28;20046;-91
2022/03/19 01:57:04;;;;;;;;;;;;;;;;;;4981157;28;20046;-90
2022/03/19 01:59:34;;;;;;;11.98;2.53;;;;;;;;;;4979651;28;20199;-91
2022/03/19 02:02:02;;;;;;;13.07;3.17;;;;;;;;;;4996420;28;20118;-90
2022/03/19 02:04:29;;;;;;;13.73;2.60;;;;;;;;;;4979682;28;20057;-91
2022/03/19 02:06:55;;;;;;;15.27;3.13;;;;;;;;;;4980417;28;20050;-91
2022/03/19 02:09:21;;;;;;;16.73;3.10;;;;;;;;;;4980160;28;20080;-92
2022/03/19 02:11:47;;;;;;;14.10;3.03;;;;;;;;;;4995970;28;20082;-91
2022/03/19 02:14:15;;;;;;;16.13;2.97;;;;;;;;;;4979582;28;20046;-91
2022/03/19 02:16:41;;;;;;;15.30;3.38;;;;;;;;;;4979826;28;20081;-91
2022/03/19 02:19:07;;;;;;;8.82;2.72;;;;;;;;;;4995841;28;20042;-90
2022/03/19 02:21:40;;;;;;;9.18;2.80;;;;;;;;;;4995992;28;20042;-91
2022/03/19 02:26:51;;;;;;;21.30;3.20;;;;;;;;;;4995611;28;20125;-92
2022/03/19 02:29:17;;;;;;;17.05;3.50;;;;;;;;;;4979985;28;20081;-91
2022/03/19 02:31:47;;;;;;;15.95;3.35;;;;;;;;;;4995914;28;20094;-90
2022/03/19 02:34:13;;;;;;;11.38;2.95;;;;;;;;;;4979391;28;20039;-91
2022/03/19 02:36:40;;;;;;;13.80;3.70;;;;;;;;;;4979291;28;20129;-91
2022/03/19 02:39:13;;;;;;;13.52;3.00;;;;;;;;;;4979215;28;20053;-92
2022/03/19 02:41:47;;;;;;;13.27;3.17;;;;;;;;;;4995587;28;20050;-91
2022/03/19 02:44:13;;;;;;;11.25;3.30;;;;;;;;;;4994971;28;20413;-90
2022/03/19 02:46:50;;;;;;;10.43;2.70;;;;;;;;;;4995141;28;20042;-91
2022/03/19 02:49:17;;;;;;;12.30;3.45;;;;;;;;;;4995094;28;20133;-91
2022/03/19 02:51:44;;;;;;;15.07;3.17;;;;;;;;;;4995459;28;20527;-91
2022/03/19 02:54:11;;;;;;;14.05;3.88;;;;;;;;;;4995058;28;20173;-91
2022/03/19 02:56:38;;;;;;;13.55;3.40;;;;;;;;;;4978995;28;20081;-91
2022/03/19 02:59:08;;;;;;;16.67;3.35;;;;;;;;;;4978732;28;20034;-90
2022/03/19 03:01:34;;;;;;;14.82;4.30;;;;;;;;;;4994761;28;20117;-90
2022/03/19 03:04:00;;;;;;;14.70;3.28;;;;;;;;;;4994691;28;20453;-91
2022/03/19 03:06:28;;;;;;;15.80;3.63;;;;;;;;;;4994943;28;20048;-91
2022/03/19 03:08:54;;;;;;;14.55;3.70;;;;;;;;;;4978244;28;20072;-90
2022/03/19 03:11:20;;;;;;;13.05;3.40;;;;;;;;;;4994731;28;20413;-90
2022/03/19 03:13:46;;;;;;;13.75;3.28;;;;;;;;;;4977972;28;20046;-91
2022/03/19 03:16:12;;;;;;;13.13;3.90;;;;;;;;;;4978314;28;20125;-90
2022/03/19 03:18:38;;;;;;;13.43;3.42;;;;;;;;;;4994216;28;20053;-90
2022/03/19 03:21:04;;;;;;;16.13;4.05;;;;;;;;;;4994545;28;20046;-90
2022/03/19 03:23:31;;;;;;;16.27;3.83;;;;;;;;;;4994112;28;20046;-91
2022/03/19 03:25:57;;;;;;;14.88;3.45;;;;;;;;;;4978127;28;20344;-90
2022/03/19 03:28:23;;;;;;;10.88;3.67;;;;;;;;;;4978100;28;20065;-90
2022/03/19 03:30:49;;;;;;;12.57;4.07;;;;;;;;;;4978249;28;20038;-90
2022/03/19 03:33:15;;;;;;;14.65;3.85;;;;;;;;;;4978049;28;20042;-91
2022/03/19 03:35:41;;;;;;;13.70;3.78;;;;;;;;;;4977735;28;20046;-91
2022/03/19 03:38:07;;;;;;;14.55;3.67;;;;;;;;;;4994219;28;20494;-90
2022/03/19 03:40:33;;;;;;;13.23;3.67;;;;;;;;;;4994292;28;20049;-91
2022/03/19 03:42:59;;;;;;;11.77;3.67;;;;;;;;;;4977831;28;20077;-90
2022/03/19 03:45:29;;;;;;;11.02;3.42;;;;;;;;;;4977205;28;20077;-91
2022/03/19 03:47:55;;;;;;;14.30;3.90;;;;;;;;;;4994060;28;20521;-91
2022/03/19 03:50:21;;;;;;;15.23;3.97;;;;;;;;;;4993766;28;20093;-90
2022/03/19 03:52:47;;;;;;;17.45;4.40;;;;;;;;;;4977717;28;20482;-90
2022/03/19 03:55:14;;;;;;;19.25;3.88;;;;;;;;;;4993951;28;20042;-91
2022/03/19 03:57:40;;;;;;;16.65;4.45;;;;;;;;;;4993980;28;20038;-91
2022/03/19 04:00:08;;;;;;;17.00;4.85;;;;;;;;;;4993598;28;20046;-93
2022/03/19 04:02:34;;;;;;;15.10;4.25;;;;;;;;;;4977588;28;20133;-90
2022/03/19 04:05:00;;;;;;;16.80;4.10;;;;;;;;;;4993402;28;20047;-90
2022/03/19 04:07:27;;;;;;;11.90;4.18;;;;;;;;;;4993716;28;20046;-91
2022/03/19 04:09:53;;;;;;;14.75;4.10;;;;;;;;;;4977128;28;20042;-91
2022/03/19 04:12:19;;;;;;;13.65;4.57;;;;;;;;;;4977356;28;20050;-90
2022/03/19 04:14:45;;;;;;;12.50;4.10;;;;;;;;;;4977074;28;20042;-91
2022/03/19 04:17:11;;;;;;;15.40;4.32;;;;;;;;;;4993367;28;20049;-90
2022/03/19 04:19:37;;;;;;;12.40;4.65;;;;;;;;;;4993484;28;20042;-91
2022/03/19 04:22:04;;;;;;;14.63;5.00;;;;;;;;;;4993490;28;20108;-90
2022/03/19 04:24:30;;;;;;;18.05;4.70;;;;;;;;;;4992999;28;20104;-90
2022/03/19 04:26:57;;;;;;;19.02;5.32;;;;;;;;;;4993283;28;20039;-91
2022/03/19 04:29:23;;;;;;;13.88;4.40;;;;;;;;;;4976986;28;20046;-91
2022/03/19 04:31:49;;;;;;;17.83;5.30;;;;;;;;;;4993021;28;20060;-91
2022/03/19 04:34:15;;;;;;;15.50;4.47;;;;;;;;;;4992993;28;20046;-91
2022/03/19 04:36:41;;;;;;;18.88;4.50;;;;;;;;;;4976949;28;20482;-91
2022/03/19 04:39:08;;;;;;;18.05;5.20;;;;;;;;;;4976914;28;20045;-91
2022/03/19 04:41:35;;;;;;;12.20;5.22;;;;;;;;;;4977006;28;20046;-91
2022/03/19 04:44:01;;;;;;;14.02;4.47;;;;;;;;;;4992560;28;20043;-90
2022/03/19 04:46:27;;;;;;;17.33;5.25;;;;;;;;;;4992876;28;20069;-90
2022/03/19 04:48:53;;;;;;;14.60;4.40;;;;;;;;;;4976658;28;20045;-91
2022/03/19 04:51:20;;;;;;;13.77;4.57;;;;;;;;;;4992504;28;20053;-91
2022/03/19 04:53:53;;;;;;;17.33;4.78;;;;;;;;;;4976757;28;20042;-91
2022/03/19 04:56:19;;;;;;;17.95;4.57;;;;;;;;;;4992494;28;20121;-90
2022/03/19 04:58:46;;;;;;;14.25;5.00;;;;;;;;;;4975951;28;20460;-91
2022/03/19 05:01:12;;;;;;;13.25;4.97;;;;;;;;;;4992493;28;20081;-91
2022/03/19 05:03:38;;;;;;;14.07;4.88;;;;;;;;;;4976615;28;20046;-91
2022/03/19 05:06:04;;;;;;;16.15;5.25;;;;;;;;;;4976389;28;20117;-91
2022/03/19 05:08:30;;;;;;;21.00;5.97;;;;;;;;;;4992679;28;20042;-90
2022/03/19 05:11:15;;;;;;;17.20;5.35;;;;;;;;;;4992194;28;20382;-90
2022/03/19 05:13:45;;;;;;;15.23;6.53;;;;;;;;;;4976709;28;20050;-90
2022/03/19 05:16:11;;;;;;;17.15;5.28;;;;;;;;;;4975805;28;20089;-91
2022/03/19 05:18:37;;;;;;;19.05;5.32;;;;;;;;;;4975949;28;20041;-90
2022/03/19 05:21:04;;;;;;;19.40;4.90;;;;;;;;;;4992163;28;20089;-89
2022/03/19 05:23:31;;;;;;;15.25;5.47;;;;;;;;;;4975986;28;20085;-90
2022/03/19 05:25:58;;;;;;;13.75;5.38;;;;;;;;;;4976235;28;20050;-90
2022/03/19 05:28:24;;;;;;;19.92;5.28;;;;;;;;;;4976056;28;20046;-89
2022/03/19 05:30:51;;;;;;;14.48;5.38;;;;;;;;;;4992044;28;20050;-89
2022/03/19 05:33:17;;;;;;;21.08;5.32;;;;;;;;;;4976768;28;20042;-90
2022/03/19 05:35:44;;;;;;;16.20;5.68;;;;;;;;;;4993116;28;20078;-90
2022/03/19 05:38:11;;;;;;;14.50;5.15;;;;;;;;;;4976623;28;20042;-90
2022/03/19 05:40:37;;;;;;;17.45;5.03;;;;;;;;;;4975592;28;20042;-89
2022/03/19 05:43:03;;;;;;;20.23;6.40;;;;;;;;;;4992078;28;20065;-90
2022/03/19 05:45:29;;;;;;;13.68;5.32;;;;;;;;;;4975755;28;20089;-89
2022/03/19 05:47:55;;;;;;;18.17;6.53;;;;;;;;;;4991968;28;20405;-90
2022/03/19 05:50:21;;;;;;;18.15;5.75;;;;;;;;;;4975552;28;20065;-90
2022/03/19 05:52:47;;;;;;;16.50;5.97;;;;;;;;;;4992151;28;20042;-89
2022/03/19 05:55:14;;;;;;;17.75;7.30;;;;;;;;;;4975768;28;20509;-89
2022/03/19 05:57:40;;;;;;;16.90;6.15;;;;;;;;;;4976517;28;20494;-90
2022/03/19 06:00:08;;;;;;;17.60;6.35;;;;;;;;;;4993065;28;20042;-90
2022/03/19 06:02:38;;;;;;;17.25;6.47;;;;;;;;;;4992758;28;20049;-90
2022/03/19 06:05:04;;;;;;;15.98;7.45;;;;;;;;;;4976427;28;20053;-92
2022/03/19 06:07:30;;;;;;;17.90;7.00;;;;;;;;;;4976208;28;20054;-91
2022/03/19 06:09:56;;;;;;;20.77;7.57;;;;;;;;;;4978763;28;20046;-91
2022/03/19 06:12:22;;;;;;;22.67;7.45;;;;;;;;;;4980152;28;20140;-89
2022/03/19 06:14:53;;;;;;;20.77;7.53;;;;;;;;;;4980401;28;20038;-90
2022/03/19 06:17:19;;;;;;;18.77;8.00;;;;;;;;;;4996795;28;20521;-90
2022/03/19 06:19:45;;;;;;;19.50;8.23;;;;;;;;;;4997017;28;20395;-90
2022/03/19 06:22:11;;;;;;;21.90;8.43;;;;;;;;;;4980250;28;20046;-92
2022/03/19 06:24:37;;;;;;;18.38;7.80;;;;;;;;;;4980366;28;20046;-91
2022/03/19 06:27:03;;;;;;;22.77;8.15;;;;;;;;;;4980585;28;20050;-91
2022/03/19 06:29:29;;;;;;;18.98;7.53;;;;;;;;;;4979696;28;20046;-91
2022/03/19 06:31:55;;;;;;;16.48;7.63;;;;;;;;;;4979020;28;20078;-91
2022/03/19 06:34:22;;;;;;;20.00;7.95;;;;;;;;;;4995516;28;20074;-92
2022/03/19 06:39:32;;;;;;;18.08;7.30;;;;;;;;;;4998989;28;20261;-92
2022/03/19 06:41:58;;;;;;;19.65;8.30;;;;;;;;;;4982194;28;20206;-92
2022/03/19 06:44:24;;;;;;;20.35;7.10;;;;;;;;;;4998555;28;20046;-91
2022/03/19 06:46:50;;;;;;;22.75;7.65;;;;;;;;;;4998262;28;20128;-92
2022/03/19 06:49:16;;;;;;;18.10;7.55;;;;;;;;;;4998580;28;20037;-90
2022/03/19 06:51:42;;;;;;;21.08;7.55;;;;;;;;;;4982199;28;20049;-91
2022/03/19 06:54:08;;;;;;;17.02;7.13;;;;;;;;;;4982295;28;20037;-92
2022/03/19 06:56:34;;;;;;;20.08;6.82;;;;;;;;;;4982291;28;20192;-91
2022/03/19 06:59:01;;;;;;;21.40;7.90;;;;;;;;;;4998530;28;20148;-92
2022/03/19 07:01:27;;;;;;;24.48;8.38;;;;;;;;;;4982028;28;20052;-93
2022/03/19 07:03:53;;;;;;;18.88;7.18;;;;;;;;;;4982164;28;20081;-92
2022/03/19 07:06:21;;;;;;;16.58;7.50;;;;;;;;;;4997864;28;20046;-93
2022/03/19 07:08:50;;;;;;;17.92;7.05;;;;;;;;;;4998095;28;20095;-91
2022/03/19 07:11:16;;;;;;;18.88;7.40;;;;;;;;;;4981604;28;20081;-91
2022/03/19 07:13:47;;;;;;;18.10;6.35;;;;;;;;;;4982060;28;20082;-92
2022/03/19 07:16:15;;;;;;;17.73;6.07;;;;;;;;;;4981651;28;20038;-93
2022/03/19 07:18:42;;;;;;;15.02;5.97;;;;;;;;;;4982387;28;20037;-91
2022/03/19 07:21:10;;;;;;;13.32;5.40;;;;;;;;;;4981086;28;20108;-92
2022/03/19 07:23:36;;;;;;;18.45;5.57;;;;;;;;;;4982065;28;20064;-94
2022/03/19 07:26:03;;;;;;;19.08;5.80;;;;;;;;;;4997806;28;20081;-93
2022/03/19 07:28:29;;;;;;;18.75;5.75;;;;;;;;;;4997707;28;20046;-93
2022/03/19 07:30:58;;;;;;;21.25;5.75;;;;;;;;;;4981707;28;20053;-93
2022/03/19 07:33:24;;;;;;;15.50;5.20;;;;;;;;;;4981636;28;20077;-91
2022/03/19 07:35:53;;;;;;;14.98;5.40;;;;;;;;;;4997283;28;20054;-93
2022/03/19 07:38:21;;;;;;;15.88;5.68;;;;;;;;;;4997799;28;20132;-93
2022/03/19 07:43:32;;;;;;;17.77;5.15;;;;;;;;;;4998106;28;20136;-92
2022/03/19 07:45:58;;;;;;;16.08;5.60;;;;;;;;;;4982198;28;20564;-93
2022/03/19 07:48:24;;;;;;;15.05;5.10;;;;;;;;;;4982153;28;20112;-92
2022/03/19 07:50:50;;;;;;;17.00;5.00;;;;;;;;;;4982381;28;20081;-93
2022/03/19 07:53:16;;;;;;;17.67;4.57;;;;;;;;;;4999122;28;20096;-92
2022/03/19 07:55:42;;;;;;;31.67;5.60;;;;;;;;;;4998300;28;20167;-94
2022/03/19 07:58:11;;;;;;;15.50;5.13;;;;;;;;;;4998440;28;20030;-92
2022/03/19 08:00:40;;;;;;;15.05;4.35;;;;;;;;;;4981679;28;20070;-95
2022/03/19 08:03:06;;;;;;;13.90;4.78;;;;;;;;;;4981079;28;20101;-95
2022/03/19 08:05:37;;;;;;;13.40;4.82;;;;;;;;;;4997736;28;20278;-94
2022/03/19 08:08:06;;;;;;;17.75;4.63;;;;;;;;;;4997555;28;20401;-92
2022/03/19 08:10:34;;;;;;;18.98;5.50;;;;;;;;;;4981147;28;20508;-93
2022/03/19 08:13:04;;;;;;;16.25;4.68;;;;;;;;;;4997561;28;20042;-93
2022/03/19 08:15:31;;;;;;;16.55;4.47;;;;;;;;;;4982041;28;20037;-93
2022/03/19 08:17:57;;;;;;;16.08;5.05;;;;;;;;;;4982591;28;20088;-93
2022/03/19 08:20:23;;;;;;;15.60;5.03;;;;;;;;;;4981296;28;20038;-94
2022/03/19 08:22:52;;;;;;;15.95;4.63;;;;;;;;;;4981633;28;20228;-93
2022/03/19 08:25:18;;;;;;;15.05;4.95;;;;;;;;;;4997151;28;20551;-92
2022/03/19 08:27:47;;;;;;;16.88;5.03;;;;;;;;;;4981025;28;20140;-93
2022/03/19 08:30:13;;;;;;;17.27;4.15;;;;;;;;;;4980875;28;20484;-91
2022/03/19 08:32:39;;;;;;;19.50;5.03;;;;;;;;;;4980660;28;20117;-91
2022/03/19 08:35:05;;;;;;;13.73;4.68;;;;;;;;;;4980395;28;20145;-93
2022/03/19 08:37:32;;;;;;;15.27;4.60;;;;;;;;;;4980555;28;20049;-92
2022/03/19 08:40:19;;;;;;;13.23;3.92;;;;;;;;;;4981574;28;20041;-93
2022/03/19 08:42:52;;;;;;;13.77;4.05;;;;;;;;;;4980972;28;20042;-93
2022/03/19 08:45:21;;;;;;;17.33;5.45;;;;;;;;;;4982088;28;20121;-93
2022/03/19 08:47:47;;;;;;;16.15;4.35;;;;;;;;;;4981724;28;20049;-92
2022/03/19 08:50:14;;;;;;;14.02;4.32;;;;;;;;;;4981940;28;20049;-92
2022/03/19 08:52:40;;;;;;;17.50;6.15;;;;;;;;;;4982674;28;20578;-93
2022/03/19 08:55:06;;;;;;;16.48;4.45;;;;;;;;;;4998765;28;20128;-92
2022/03/19 08:57:32;;;;;;;14.25;4.60;;;;;;;;;;4982435;28;20065;-92
2022/03/19 08:59:59;;;;;;;17.20;4.15;;;;;;;;;;4982751;28;20046;-93
2022/03/19 09:02:25;;;;;;;12.02;4.10;;;;;;;;;;4982295;28;20057;-94
2022/03/19 09:04:54;;;;;;;12.90;3.78;;;;;;;;;;4982042;28;20072;-93
2022/03/19 09:07:20;;;;;;;14.05;3.67;;;;;;;;;;4998353;28;20046;-93
2022/03/19 09:09:52;;;;;;;13.27;4.07;;;;;;;;;;4998331;28;20053;-93
2022/03/19 09:12:21;;;;;;;15.00;3.90;;;;;;;;;;4981266;28;20038;-93
2022/03/19 09:14:49;;;;;;;12.52;4.10;;;;;;;;;;4996961;28;20389;-92
2022/03/19 09:17:17;;;;;;;13.73;3.97;;;;;;;;;;4979936;28;20080;-94
2022/03/19 09:19:43;;;;;;;13.25;4.00;;;;;;;;;;4980175;28;20100;-92
2022/03/19 09:22:09;;;;;;;11.43;3.20;;;;;;;;;;4979948;28;20111;-94
2022/03/19 09:24:36;;;;;;;14.40;3.92;;;;;;;;;;4996189;28;20041;-94
2022/03/19 09:27:05;;;;;;;12.93;3.55;;;;;;;;;;4996190;28;20049;-91
2022/03/19 09:29:31;;;;;;;12.88;3.55;;;;;;;;;;4996230;28;20111;-91
2022/03/19 09:31:57;;;;;;;12.30;3.78;;;;;;;;;;4996489;28;20049;-93
2022/03/19 09:34:25;;;;;;;15.75;4.07;;;;;;;;;;4996391;28;20038;-93
2022/03/19 09:36:54;;;;;;;11.90;3.60;;;;;;;;;;4981440;28;20378;-94
2022/03/19 09:39:20;;;;;;;14.10;3.95;;;;;;;;;;4982266;28;20037;-93
2022/03/19 09:41:47;;;;;;;13.65;3.25;;;;;;;;;;4983796;28;20260;-94
2022/03/19 09:44:16;;;;;;;13.75;3.22;;;;;;;;;;4982726;28;20542;-92
2022/03/19 09:46:45;;;;;;;12.23;3.35;;;;;;;;;;4983909;28;20133;-92
2022/03/19 09:49:11;;;;;;;16.52;4.03;;;;;;;;;;4984076;28;20046;-94
2022/03/19 09:51:44;;;;;;;14.63;4.85;;;;;;;;;;4984050;28;20046;-91
2022/03/19 09:54:13;;;;;;;13.27;3.78;;;;;;;;;;4983595;28;20049;-92
2022/03/19 09:56:39;;;;;;;11.35;3.47;;;;;;;;;;5000660;28;20421;-91
2022/03/19 09:59:06;;;;;;;14.93;3.78;;;;;;;;;;5000088;28;20120;-91
2022/03/19 10:01:33;;;;;;;9.90;3.63;;;;;;;;;;4984137;28;20049;-92
2022/03/19 10:04:04;;;;;;;15.02;3.50;;;;;;;;;;4984620;28;20041;-92
2022/03/19 10:09:18;;;;;;;16.80;3.30;;;;;;;;;;4999927;28;20057;-91
2022/03/19 10:11:47;;;;;;;12.20;2.83;;;;;;;;;;5000748;28;20085;-91
2022/03/19 10:14:19;;;;;;;13.95;3.40;;;;;;;;;;5000248;28;20485;-90
2022/03/19 10:16:48;;;;;;;11.80;3.00;;;;;;;;;;4984678;28;20045;-92
2022/03/19 10:19:14;;;;;;;10.30;3.05;;;;;;;;;;5000296;28;20049;-92
2022/03/19 10:21:41;;;;;;;11.23;2.30;;;;;;;;;;5000786;28;20099;-93
2022/03/19 10:24:08;;;;;;;9.43;3.55;;;;;;;;;;5000663;28;20050;-91
2022/03/19 10:26:35;;;;;;;14.23;3.00;;;;;;;;;;4985189;28;20210;-93
2022/03/19 10:29:09;;;;;;;8.85;2.55;;;;;;;;;;5003925;28;20045;-89
2022/03/19 10:31:35;;;;;;;9.30;2.92;;;;;;;;;;4988699;28;20068;-93
2022/03/19 10:34:02;;;;;;;8.27;2.88;;;;;;;;;;5000801;28;20512;-93
2022/03/19 10:36:32;;;;;;;11.18;3.13;;;;;;;;;;5001813;28;20066;-92
2022/03/19 10:38:59;;;;;;;13.10;3.30;;;;;;;;;;4985760;28;20128;-91
2022/03/19 10:41:25;;;;;;;9.60;2.80;;;;;;;;;;4985266;28;20520;-91
2022/03/19 10:43:51;;;;;;;12.07;2.38;;;;;;;;;;4985197;28;20045;-92
2022/03/19 10:46:18;;;;;;;7.65;2.50;;;;;;;;;;5001565;28;20076;-91
2022/03/19 10:48:49;;;;;;;9.07;2.33;;;;;;;;;;5000553;28;20053;-92
2022/03/19 10:51:16;;;;;;;9.65;2.47;;;;;;;;;;5003101;28;20049;-89
2022/03/19 10:53:43;;;;;;;12.57;2.83;;;;;;;;;;4987148;28;20037;-91
2022/03/19 10:56:09;;;;;;;10.70;2.50;;;;;;;;;;4983951;28;20054;-91
2022/03/19 10:58:35;;;;;;;7.78;2.22;;;;;;;;;;4983558;28;20107;-90
2022/03/19 11:01:01;;;;;;;8.65;2.38;;;;;;;;;;5000587;28;20339;-91
2022/03/19 11:03:29;;;;;;;8.57;1.88;;;;;;;;;;5000520;28;20104;-91
2022/03/19 11:06:04;;;;;;;7.45;2.55;;;;;;;;;;5017396;28;20107;-90
2022/03/19 11:08:34;;;;;;;8.88;2.10;;;;;;;;;;5019342;28;20049;-86
2022/03/19 11:11:00;;;;;;;7.55;2.00;;;;;;;;;;5002865;28;20107;-91
2022/03/19 11:13:28;;;;;;;9.05;2.45;;;;;;;;;;5008545;28;20041;-91
2022/03/19 11:15:56;;;;;;;7.38;2.28;;;;;;;;;;5019936;28;20095;-88
2022/03/19 11:18:22;;;;;;;7.85;2.08;;;;;;;;;;5020155;28;20033;-89
2022/03/19 11:20:49;;;;;;;7.45;1.80;;;;;;;;;;5026883;28;20038;-88
2022/03/19 11:23:16;;;;;;;10.40;1.95;;;;;;;;;;5020934;28;20051;-88
2022/03/19 11:25:50;;;;;;;9.25;2.28;;;;;;;;;;5027224;28;20072;-89
2022/03/19 11:28:18;;;;;;;8.10;1.73;;;;;;;;;;5023439;28;20049;-88
2022/03/19 11:30:58;;;;;;;10.50;2.20;;;;;;;;;;5007430;28;20120;-87
2022/03/19 11:33:24;;;;;;;5.38;1.50;;;;;;;;;;5017197;28;20033;-86
2022/03/19 11:36:00;;;;;;;6.90;1.85;;;;;;;;;;5019894;28;20061;-89
2022/03/19 11:38:27;;;;;;;6.93;1.90;;;;;;;;;;5002427;28;20105;-90
2022/03/19 11:40:55;;;;;;;8.30;1.77;;;;;;;;;;5027689;28;20081;-89
2022/03/19 11:43:24;;;;;;;5.97;1.75;;;;;;;;;;5041619;28;20120;-90
2022/03/19 11:46:04;;;;;;;8.18;2.03;;;;;;;;;;5019215;28;20492;-89
2022/03/19 11:48:36;;;;;;;6.57;2.08;;;;;;;;;;5018359;28;20064;-90
2022/03/19 11:51:18;;;;;;;6.55;1.63;;;;;;;;;;5011145;28;20124;-88
2022/03/19 11:53:53;;;;;;;5.47;1.85;;;;;;;;;;5005342;28;20029;-90
2022/03/19 11:56:19;;;;;;;6.38;1.65;;;;;;;;;;4998310;28;20048;-92
2022/03/19 11:58:45;;;;;;;2.70;1.00;;;;;;;;;;4998760;28;20489;-89
2022/03/19 12:01:11;;;;;;;6.43;1.58;;;;;;;;;;4998200;28;20042;-90
2022/03/19 12:04:10;;;;;;;4.22;1.33;;;;;;;;;;4997475;28;20049;-90
2022/03/19 12:06:40;;;;;;;5.07;0.93;;;;;;;;;;4998482;28;20048;-90
2022/03/19 12:09:07;;;;;;;3.58;1.02;;;;;;;;;;4998477;28;20045;-88
2022/03/19 12:11:35;;;;;;;4.68;1.20;;;;;;;;;;4997527;28;20045;-90
2022/03/19 12:14:07;;;;;;;6.00;1.10;;;;;;;;;;4997743;28;20341;-89
2022/03/19 12:16:39;;;;;;;5.30;1.20;;;;;;;;;;4998135;28;20034;-93
2022/03/19 12:19:05;;;;;;;4.63;0.90;;;;;;;;;;4998504;28;20377;-90
2022/03/19 12:21:34;;;;;;;4.07;0.95;;;;;;;;;;4999215;28;20041;-89
2022/03/19 12:24:06;;;;;;;5.65;1.33;;;;;;;;;;4997829;28;20060;-90
2022/03/19 12:26:37;;;;;;;7.53;1.48;;;;;;;;;;4998738;28;20081;-90
2022/03/19 12:29:04;;;;;;;5.10;1.00;;;;;;;;;;4998135;28;20053;-91
2022/03/19 12:31:34;;;;;;;4.85;1.40;;;;;;;;;;4998504;28;20107;-92
2022/03/19 12:34:00;;;;;;;5.07;1.13;;;;;;;;;;4998923;28;20117;-89
2022/03/19 12:36:27;;;;;;;6.75;1.40;;;;;;;;;;4999674;28;20054;-93
2022/03/19 12:38:53;;;;;;;3.38;0.90;;;;;;;;;;5003886;28;20052;-92
2022/03/19 12:41:30;;;;;;;4.95;1.02;;;;;;;;;;4998408;28;20037;-88
2022/03/19 12:43:58;;;;;;;6.18;1.15;;;;;;;;;;5001182;28;20050;-90
2022/03/19 12:46:34;;;;;;;7.72;1.42;;;;;;;;;;4999338;28;20038;-90
2022/03/19 12:49:10;;;;;;;5.63;0.93;;;;;;;;;;5000153;28;20204;-90
2022/03/19 12:51:38;;;;;;;6.03;1.38;;;;;;;;;;5001270;28;20038;-89
2022/03/19 12:54:24;;;;;;;5.72;1.38;;;;;;;;;;5003185;28;20069;-89
2022/03/19 12:56:51;;;;;;;8.55;1.42;;;;;;;;;;5000813;28;20042;-89
2022/03/19 12:59:27;;;;;;;4.95;1.38;;;;;;;;;;4999623;28;20129;-89
2022/03/19 13:01:54;;;;;;;4.63;1.33;;;;;;;;;;4999920;28;20068;-89
2022/03/19 13:04:21;;;;;;;7.93;1.60;;;;;;;;;;4999873;28;20045;-89
2022/03/19 13:06:47;;;;;;;6.53;1.45;;;;;;;;;;5000161;28;20034;-89
2022/03/19 13:09:13;;;;;;;5.85;1.27;;;;;;;;;;5000286;28;20165;-90
2022/03/19 13:11:48;;;;;;;6.45;1.33;;;;;;;;;;5000100;28;20053;-89
2022/03/19 13:14:15;;;;;;;4.97;1.25;;;;;;;;;;4999097;28;20057;-90
2022/03/19 13:16:42;;;;;;;7.13;1.70;;;;;;;;;;5017739;28;20042;-90
2022/03/19 13:19:09;;;;;;;9.77;1.80;;;;;;;;;;4994060;28;20034;-92
2022/03/19 13:21:37;;;;;;;4.38;1.35;;;;;;;;;;5007536;28;20041;-93
2022/03/19 13:24:04;;;;;;;6.78;1.40;;;;;;;;;;5017055;28;20038;-92
2022/03/19 13:26:31;;;;;;;5.53;1.83;;;;;;;;;;4999515;28;20492;-89
2022/03/19 13:29:00;;;;;;;7.88;1.65;;;;;;;;;;4981715;28;20034;-89
2022/03/19 13:31:26;;;;;;;8.30;1.58;;;;;;;;;;4997841;28;20124;-89
2022/03/19 13:33:52;;;;;;;7.38;1.80;;;;;;;;;;4980902;28;20537;-89
2022/03/19 13:36:18;;;;;;;5.13;1.23;;;;;;;;;;5009434;28;20061;-90
2022/03/19 13:38:45;;;;;;;7.60;1.40;;;;;;;;;;4998270;28;20137;-90
2022/03/19 13:41:18;;;;;;;6.95;1.85;;;;;;;;;;5010504;28;20084;-90
2022/03/19 13:43:45;;;;;;;7.68;1.40;;;;;;;;;;5000573;28;20084;-90
2022/03/19 13:46:15;;;;;;;10.82;2.13;;;;;;;;;;5017339;28;20049;-91
2022/03/19 13:48:41;;;;;;;6.32;1.27;;;;;;;;;;5005609;28;20069;-90
2022/03/19 13:51:07;;;;;;;6.57;2.03;;;;;;;;;;5016683;28;20052;-90
2022/03/19 13:53:48;;;;;;;6.63;1.75;;;;;;;;;;5017262;28;20044;-90
2022/03/19 13:56:14;;;;;;;8.60;1.80;;;;;;;;;;5016696;28;20064;-91
2022/03/19 13:58:40;;;;;;;7.97;2.05;;;;;;;;;;5015177;28;20099;-90
2022/03/19 14:01:14;;;;;;;6.45;2.20;;;;;;;;;;5015529;28;20042;-89
2022/03/19 14:03:40;;;;;;;10.90;1.85;;;;;;;;;;5015688;28;20037;-89
2022/03/19 14:06:07;;;;;;;7.40;1.80;;;;;;;;;;5016143;28;20057;-91
2022/03/19 14:08:34;;;;;;;8.73;2.08;;;;;;;;;;5015642;28;20037;-90
2022/03/19 14:11:00;;;;;;;6.47;2.00;;;;;;;;;;5015795;28;20033;-90
2022/03/19 14:13:43;;;;;;;7.00;1.85;;;;;;;;;;5015801;28;20045;-89
2022/03/19 14:16:10;;;;;;;7.75;2.10;;;;;;;;;;5006030;28;20073;-90
2022/03/19 14:18:37;;;;;;;6.65;1.60;;;;;;;;;;5013493;28;20029;-91
2022/03/19 14:21:04;;;;;;;5.95;1.70;;;;;;;;;;5016282;28;20037;-91
2022/03/19 14:23:31;;;;;;;7.68;1.80;;;;;;;;;;5016334;28;20041;-92
2022/03/19 14:25:57;;;;;;;7.90;1.75;;;;;;;;;;5015598;28;20125;-91
2022/03/19 14:28:24;;;;;;;8.23;1.30;;;;;;;;;;5016026;28;20040;-90
2022/03/19 14:30:51;;;;;;;5.55;1.25;;;;;;;;;;5033011;28;20048;-91
2022/03/19 14:33:17;;;;;;;6.32;1.50;;;;;;;;;;5018505;28;20435;-92
2022/03/19 14:35:44;;;;;;;6.72;1.40;;;;;;;;;;5004111;28;20133;-89
2022/03/19 14:38:11;;;;;;;6.65;1.52;;;;;;;;;;5017377;28;20037;-90
2022/03/19 14:40:37;;;;;;;6.45;1.60;;;;;;;;;;5010216;28;20408;-89
2022/03/19 14:43:04;;;;;;;7.25;1.63;;;;;;;;;;5018905;28;20053;-88
2022/03/19 14:45:30;;;;;;;5.53;1.50;;;;;;;;;;5018377;28;20042;-89
2022/03/19 14:47:56;;;;;;;9.43;1.35;;;;;;;;;;5017846;28;20038;-88